sensor_id;sensor_type;location;lat;lon;timestamp;P1;durP1;ratioP1;P2;durP2;ratioP2
46266;SDS011;31998;48.798;15.066;2024-02-21T00:01:41;4.00;;;2.40;;
46266;SDS011;31998;48.798;15.066;2024-02-21T00:04:06;5.90;;;2.53;;
46266;SDS011;31998;48.798;15.066;2024-02-21T00:06:31;3.53;;;1.97;;
46266;SDS011;31998;48.798;15.066;2024-02-21T00:08:57;8.40;;;2.07;;
46266;SDS011;31998;48.798;15.066;2024-02-21T00:11:22;8.13;;;2.50;;
46266;SDS011;31998;48.798;15.066;2024-02-21T00:13:47;2.77;;;1.90;;
46266;SDS011;31998;48.798;15.066;2024-02-21T00:16:14;17.13;;;3.37;;
46266;SDS011;31998;48.798;15.066;2024-02-21T00:18:40;4.90;;;2.20;;
46266;SDS011;31998;48.798;15.066;2024-02-21T00:21:06;2.67;;;1.90;;
46266;SDS011;31998;48.798;15.066;2024-02-21T00:23:31;7.40;;;2.17;;
46266;SDS011;31998;48.798;15.066;2024-02-21T00:25:56;11.07;;;3.10;;
46266;SDS011;31998;48.798;15.066;2024-02-21T00:28:21;3.30;;;1.77;;
46266;SDS011;31998;48.798;15.066;2024-02-21T00:30:47;5.57;;;2.10;;
46266;SDS011;31998;48.798;15.066;2024-02-21T00:33:13;8.40;;;1.90;;
46266;SDS011;31998;48.798;15.066;2024-02-21T00:35:39;6.60;;;1.60;;
46266;SDS011;31998;48.798;15.066;2024-02-21T00:38:04;12.87;;;4.87;;
46266;SDS011;31998;48.798;15.066;2024-02-21T00:40:29;10.23;;;5.10;;
46266;SDS011;31998;48.798;15.066;2024-02-21T00:42:54;6.20;;;2.30;;
46266;SDS011;31998;48.798;15.066;2024-02-21T00:45:20;3.27;;;2.03;;
46266;SDS011;31998;48.798;15.066;2024-02-21T00:47:45;8.37;;;2.60;;
46266;SDS011;31998;48.798;15.066;2024-02-21T00:50:10;3.50;;;1.90;;
46266;SDS011;31998;48.798;15.066;2024-02-21T00:52:36;9.60;;;2.80;;
46266;SDS011;31998;48.798;15.066;2024-02-21T00:55:01;4.20;;;2.27;;
46266;SDS011;31998;48.798;15.066;2024-02-21T00:57:26;6.53;;;1.97;;
46266;SDS011;31998;48.798;15.066;2024-02-21T00:59:51;4.20;;;1.83;;
46266;SDS011;31998;48.798;15.066;2024-02-21T01:02:17;13.63;;;4.00;;
46266;SDS011;31998;48.798;15.066;2024-02-21T01:04:42;8.00;;;2.23;;
46266;SDS011;31998;48.798;15.066;2024-02-21T01:07:07;2.73;;;1.90;;
46266;SDS011;31998;48.798;15.066;2024-02-21T01:09:32;6.20;;;2.10;;
46266;SDS011;31998;48.798;15.066;2024-02-21T01:11:57;5.63;;;2.30;;
46266;SDS011;31998;48.798;15.066;2024-02-21T01:14:23;6.47;;;1.73;;
46266;SDS011;31998;48.798;15.066;2024-02-21T01:16:48;9.13;;;1.97;;
46266;SDS011;31998;48.798;15.066;2024-02-21T01:19:13;7.87;;;2.10;;
46266;SDS011;31998;48.798;15.066;2024-02-21T01:21:38;4.23;;;2.13;;
46266;SDS011;31998;48.798;15.066;2024-02-21T01:24:03;2.17;;;1.70;;
46266;SDS011;31998;48.798;15.066;2024-02-21T01:26:29;9.90;;;2.30;;
46266;SDS011;31998;48.798;15.066;2024-02-21T01:28:54;5.77;;;2.50;;
46266;SDS011;31998;48.798;15.066;2024-02-21T01:31:19;3.00;;;1.60;;
46266;SDS011;31998;48.798;15.066;2024-02-21T01:33:45;3.27;;;1.97;;
46266;SDS011;31998;48.798;15.066;2024-02-21T01:36:10;5.43;;;2.17;;
46266;SDS011;31998;48.798;15.066;2024-02-21T01:38:35;11.03;;;3.30;;
46266;SDS011;31998;48.798;15.066;2024-02-21T01:41:00;6.53;;;2.57;;
46266;SDS011;31998;48.798;15.066;2024-02-21T01:43:26;9.13;;;2.07;;
46266;SDS011;31998;48.798;15.066;2024-02-21T01:45:57;6.00;;;2.57;;
46266;SDS011;31998;48.798;15.066;2024-02-21T01:48:22;18.17;;;2.17;;
46266;SDS011;31998;48.798;15.066;2024-02-21T01:50:51;6.40;;;2.40;;
46266;SDS011;31998;48.798;15.066;2024-02-21T01:53:18;4.40;;;1.60;;
46266;SDS011;31998;48.798;15.066;2024-02-21T01:55:48;8.30;;;2.13;;
46266;SDS011;31998;48.798;15.066;2024-02-21T01:58:13;9.60;;;2.77;;
46266;SDS011;31998;48.798;15.066;2024-02-21T02:00:39;6.93;;;5.90;;
46266;SDS011;31998;48.798;15.066;2024-02-21T02:03:05;7.40;;;4.70;;
46266;SDS011;31998;48.798;15.066;2024-02-21T02:05:31;19.83;;;6.63;;
46266;SDS011;31998;48.798;15.066;2024-02-21T02:07:57;14.73;;;5.80;;
46266;SDS011;31998;48.798;15.066;2024-02-21T02:10:22;17.53;;;6.60;;
46266;SDS011;31998;48.798;15.066;2024-02-21T02:12:47;21.00;;;7.87;;
46266;SDS011;31998;48.798;15.066;2024-02-21T02:15:13;19.00;;;7.37;;
46266;SDS011;31998;48.798;15.066;2024-02-21T02:17:38;30.83;;;10.40;;
46266;SDS011;31998;48.798;15.066;2024-02-21T02:20:03;16.70;;;9.00;;
46266;SDS011;31998;48.798;15.066;2024-02-21T02:22:29;16.73;;;9.53;;
46266;SDS011;31998;48.798;15.066;2024-02-21T02:24:57;16.57;;;7.43;;
46266;SDS011;31998;48.798;15.066;2024-02-21T02:27:22;18.47;;;6.67;;
46266;SDS011;31998;48.798;15.066;2024-02-21T02:29:48;4.97;;;3.40;;
46266;SDS011;31998;48.798;15.066;2024-02-21T02:32:13;9.33;;;4.20;;
46266;SDS011;31998;48.798;15.066;2024-02-21T02:34:38;15.30;;;3.17;;
46266;SDS011;31998;48.798;15.066;2024-02-21T02:37:03;5.53;;;2.60;;
46266;SDS011;31998;48.798;15.066;2024-02-21T02:39:29;10.33;;;2.40;;
46266;SDS011;31998;48.798;15.066;2024-02-21T02:41:54;4.40;;;2.30;;
46266;SDS011;31998;48.798;15.066;2024-02-21T02:44:19;8.93;;;3.03;;
46266;SDS011;31998;48.798;15.066;2024-02-21T02:46:44;11.53;;;2.77;;
46266;SDS011;31998;48.798;15.066;2024-02-21T02:49:10;6.83;;;3.17;;
46266;SDS011;31998;48.798;15.066;2024-02-21T02:51:35;22.70;;;12.47;;
46266;SDS011;31998;48.798;15.066;2024-02-21T02:54:02;20.80;;;10.40;;
46266;SDS011;31998;48.798;15.066;2024-02-21T02:56:27;13.67;;;5.37;;
46266;SDS011;31998;48.798;15.066;2024-02-21T02:58:52;9.60;;;5.43;;
46266;SDS011;31998;48.798;15.066;2024-02-21T03:01:17;13.17;;;2.67;;
46266;SDS011;31998;48.798;15.066;2024-02-21T03:03:42;6.00;;;2.40;;
46266;SDS011;31998;48.798;15.066;2024-02-21T03:06:08;9.83;;;3.10;;
46266;SDS011;31998;48.798;15.066;2024-02-21T03:08:33;3.57;;;1.97;;
46266;SDS011;31998;48.798;15.066;2024-02-21T03:10:59;5.50;;;2.60;;
46266;SDS011;31998;48.798;15.066;2024-02-21T03:13:24;10.90;;;3.03;;
46266;SDS011;31998;48.798;15.066;2024-02-21T03:15:50;12.37;;;2.87;;
46266;SDS011;31998;48.798;15.066;2024-02-21T03:18:15;4.57;;;2.90;;
46266;SDS011;31998;48.798;15.066;2024-02-21T03:20:40;9.63;;;3.17;;
46266;SDS011;31998;48.798;15.066;2024-02-21T03:23:05;8.30;;;2.60;;
46266;SDS011;31998;48.798;15.066;2024-02-21T03:25:30;6.07;;;2.60;;
46266;SDS011;31998;48.798;15.066;2024-02-21T03:27:56;2.97;;;1.87;;
46266;SDS011;31998;48.798;15.066;2024-02-21T03:30:21;3.73;;;1.90;;
46266;SDS011;31998;48.798;15.066;2024-02-21T03:32:46;3.80;;;2.43;;
46266;SDS011;31998;48.798;15.066;2024-02-21T03:35:11;3.50;;;2.00;;
46266;SDS011;31998;48.798;15.066;2024-02-21T03:37:36;4.63;;;2.23;;
46266;SDS011;31998;48.798;15.066;2024-02-21T03:40:02;7.10;;;1.93;;
46266;SDS011;31998;48.798;15.066;2024-02-21T03:42:27;7.43;;;2.13;;
46266;SDS011;31998;48.798;15.066;2024-02-21T03:44:54;4.93;;;2.50;;
46266;SDS011;31998;48.798;15.066;2024-02-21T03:47:20;13.70;;;3.50;;
46266;SDS011;31998;48.798;15.066;2024-02-21T03:49:45;10.33;;;3.40;;
46266;SDS011;31998;48.798;15.066;2024-02-21T03:52:10;7.87;;;3.07;;
46266;SDS011;31998;48.798;15.066;2024-02-21T03:54:35;7.63;;;2.60;;
46266;SDS011;31998;48.798;15.066;2024-02-21T03:57:01;6.53;;;3.03;;
46266;SDS011;31998;48.798;15.066;2024-02-21T03:59:26;8.23;;;2.77;;
46266;SDS011;31998;48.798;15.066;2024-02-21T04:01:52;6.93;;;2.80;;
46266;SDS011;31998;48.798;15.066;2024-02-21T04:04:17;6.17;;;2.60;;
46266;SDS011;31998;48.798;15.066;2024-02-21T04:06:46;9.50;;;3.40;;
46266;SDS011;31998;48.798;15.066;2024-02-21T04:09:11;7.20;;;2.50;;
46266;SDS011;31998;48.798;15.066;2024-02-21T04:11:36;7.90;;;3.83;;
46266;SDS011;31998;48.798;15.066;2024-02-21T04:14:02;17.53;;;3.77;;
46266;SDS011;31998;48.798;15.066;2024-02-21T04:16:27;6.53;;;2.30;;
46266;SDS011;31998;48.798;15.066;2024-02-21T04:18:52;11.60;;;3.30;;
46266;SDS011;31998;48.798;15.066;2024-02-21T04:21:17;18.53;;;5.23;;
46266;SDS011;31998;48.798;15.066;2024-02-21T04:23:43;10.67;;;5.70;;
46266;SDS011;31998;48.798;15.066;2024-02-21T04:26:08;6.43;;;2.60;;
46266;SDS011;31998;48.798;15.066;2024-02-21T04:28:33;9.50;;;3.80;;
46266;SDS011;31998;48.798;15.066;2024-02-21T04:30:58;7.70;;;2.67;;
46266;SDS011;31998;48.798;15.066;2024-02-21T04:33:23;11.57;;;3.13;;
46266;SDS011;31998;48.798;15.066;2024-02-21T04:35:49;4.03;;;3.47;;
46266;SDS011;31998;48.798;15.066;2024-02-21T04:38:14;7.07;;;2.90;;
46266;SDS011;31998;48.798;15.066;2024-02-21T04:40:40;7.43;;;4.40;;
46266;SDS011;31998;48.798;15.066;2024-02-21T04:43:05;8.33;;;4.00;;
46266;SDS011;31998;48.798;15.066;2024-02-21T04:45:30;7.30;;;3.90;;
46266;SDS011;31998;48.798;15.066;2024-02-21T04:47:55;9.40;;;3.60;;
46266;SDS011;31998;48.798;15.066;2024-02-21T04:50:20;4.97;;;3.13;;
46266;SDS011;31998;48.798;15.066;2024-02-21T04:52:46;4.27;;;2.63;;
46266;SDS011;31998;48.798;15.066;2024-02-21T04:55:11;7.27;;;2.80;;
46266;SDS011;31998;48.798;15.066;2024-02-21T04:57:36;5.43;;;2.23;;
46266;SDS011;31998;48.798;15.066;2024-02-21T05:00:02;4.73;;;3.03;;
46266;SDS011;31998;48.798;15.066;2024-02-21T05:02:28;8.73;;;3.20;;
46266;SDS011;31998;48.798;15.066;2024-02-21T05:04:53;8.53;;;3.30;;
46266;SDS011;31998;48.798;15.066;2024-02-21T05:07:19;3.73;;;2.50;;
46266;SDS011;31998;48.798;15.066;2024-02-21T05:09:44;10.83;;;2.67;;
46266;SDS011;31998;48.798;15.066;2024-02-21T05:12:10;6.10;;;2.73;;
46266;SDS011;31998;48.798;15.066;2024-02-21T05:14:35;5.97;;;3.03;;
46266;SDS011;31998;48.798;15.066;2024-02-21T05:17:00;5.60;;;2.60;;
46266;SDS011;31998;48.798;15.066;2024-02-21T05:19:26;5.57;;;2.77;;
46266;SDS011;31998;48.798;15.066;2024-02-21T05:21:51;5.30;;;3.20;;
46266;SDS011;31998;48.798;15.066;2024-02-21T05:24:16;7.17;;;3.33;;
46266;SDS011;31998;48.798;15.066;2024-02-21T05:26:41;12.03;;;4.63;;
46266;SDS011;31998;48.798;15.066;2024-02-21T05:29:07;11.20;;;3.17;;
46266;SDS011;31998;48.798;15.066;2024-02-21T05:34:16;10.67;;;2.97;;
46266;SDS011;31998;48.798;15.066;2024-02-21T05:36:41;17.63;;;3.17;;
46266;SDS011;31998;48.798;15.066;2024-02-21T05:39:06;4.17;;;2.60;;
46266;SDS011;31998;48.798;15.066;2024-02-21T05:41:32;6.73;;;2.80;;
46266;SDS011;31998;48.798;15.066;2024-02-21T05:43:57;13.50;;;3.97;;
46266;SDS011;31998;48.798;15.066;2024-02-21T05:46:22;7.27;;;2.70;;
46266;SDS011;31998;48.798;15.066;2024-02-21T05:48:47;8.30;;;2.80;;
46266;SDS011;31998;48.798;15.066;2024-02-21T05:51:12;8.60;;;2.67;;
46266;SDS011;31998;48.798;15.066;2024-02-21T05:53:38;5.23;;;3.23;;
46266;SDS011;31998;48.798;15.066;2024-02-21T05:56:09;6.63;;;3.40;;
46266;SDS011;31998;48.798;15.066;2024-02-21T05:58:35;4.37;;;2.70;;
46266;SDS011;31998;48.798;15.066;2024-02-21T06:01:00;9.07;;;3.87;;
46266;SDS011;31998;48.798;15.066;2024-02-21T06:03:28;11.33;;;3.33;;
46266;SDS011;31998;48.798;15.066;2024-02-21T06:05:53;10.27;;;2.57;;
46266;SDS011;31998;48.798;15.066;2024-02-21T06:08:18;2.53;;;2.30;;
46266;SDS011;31998;48.798;15.066;2024-02-21T06:10:43;4.83;;;3.53;;
46266;SDS011;31998;48.798;15.066;2024-02-21T06:13:09;6.00;;;3.27;;
46266;SDS011;31998;48.798;15.066;2024-02-21T06:15:34;10.63;;;3.20;;
46266;SDS011;31998;48.798;15.066;2024-02-21T06:17:59;8.73;;;2.83;;
46266;SDS011;31998;48.798;15.066;2024-02-21T06:20:25;8.10;;;2.97;;
46266;SDS011;31998;48.798;15.066;2024-02-21T06:22:50;12.63;;;3.30;;
46266;SDS011;31998;48.798;15.066;2024-02-21T06:25:15;8.40;;;3.80;;
46266;SDS011;31998;48.798;15.066;2024-02-21T06:27:40;9.97;;;3.00;;
46266;SDS011;31998;48.798;15.066;2024-02-21T06:30:06;6.63;;;3.40;;
46266;SDS011;31998;48.798;15.066;2024-02-21T06:32:31;5.53;;;3.43;;
46266;SDS011;31998;48.798;15.066;2024-02-21T06:34:56;5.03;;;3.33;;
46266;SDS011;31998;48.798;15.066;2024-02-21T06:37:22;5.40;;;3.20;;
46266;SDS011;31998;48.798;15.066;2024-02-21T06:39:47;3.90;;;3.23;;
46266;SDS011;31998;48.798;15.066;2024-02-21T06:42:12;10.10;;;3.67;;
46266;SDS011;31998;48.798;15.066;2024-02-21T06:44:37;5.30;;;2.50;;
46266;SDS011;31998;48.798;15.066;2024-02-21T06:47:05;7.10;;;2.80;;
46266;SDS011;31998;48.798;15.066;2024-02-21T06:49:30;7.80;;;3.50;;
46266;SDS011;31998;48.798;15.066;2024-02-21T06:51:56;26.87;;;12.10;;
46266;SDS011;31998;48.798;15.066;2024-02-21T06:54:21;10.73;;;6.60;;
46266;SDS011;31998;48.798;15.066;2024-02-21T06:56:46;5.60;;;4.17;;
46266;SDS011;31998;48.798;15.066;2024-02-21T06:59:11;15.00;;;3.80;;
46266;SDS011;31998;48.798;15.066;2024-02-21T07:01:43;10.03;;;3.27;;
46266;SDS011;31998;48.798;15.066;2024-02-21T07:04:09;5.37;;;3.07;;
46266;SDS011;31998;48.798;15.066;2024-02-21T07:06:34;6.80;;;2.90;;
46266;SDS011;31998;48.798;15.066;2024-02-21T07:08:59;7.20;;;3.50;;
46266;SDS011;31998;48.798;15.066;2024-02-21T07:11:24;5.03;;;2.90;;
46266;SDS011;31998;48.798;15.066;2024-02-21T07:13:50;9.37;;;3.10;;
46266;SDS011;31998;48.798;15.066;2024-02-21T07:16:15;6.47;;;3.17;;
46266;SDS011;31998;48.798;15.066;2024-02-21T07:18:40;7.03;;;2.90;;
46266;SDS011;31998;48.798;15.066;2024-02-21T07:21:05;12.93;;;3.60;;
46266;SDS011;31998;48.798;15.066;2024-02-21T07:23:31;4.00;;;3.10;;
46266;SDS011;31998;48.798;15.066;2024-02-21T07:25:56;6.50;;;2.57;;
46266;SDS011;31998;48.798;15.066;2024-02-21T07:28:21;8.10;;;3.20;;
46266;SDS011;31998;48.798;15.066;2024-02-21T07:30:46;8.57;;;2.73;;
46266;SDS011;31998;48.798;15.066;2024-02-21T07:33:12;10.53;;;2.97;;
46266;SDS011;31998;48.798;15.066;2024-02-21T07:35:37;10.93;;;2.53;;
46266;SDS011;31998;48.798;15.066;2024-02-21T07:38:05;8.00;;;3.63;;
46266;SDS011;31998;48.798;15.066;2024-02-21T07:40:31;7.00;;;3.57;;
46266;SDS011;31998;48.798;15.066;2024-02-21T07:42:56;7.70;;;2.60;;
46266;SDS011;31998;48.798;15.066;2024-02-21T07:45:21;11.67;;;4.10;;
46266;SDS011;31998;48.798;15.066;2024-02-21T07:47:48;6.43;;;2.70;;
46266;SDS011;31998;48.798;15.066;2024-02-21T07:50:14;9.33;;;3.70;;
46266;SDS011;31998;48.798;15.066;2024-02-21T07:52:39;5.50;;;2.53;;
46266;SDS011;31998;48.798;15.066;2024-02-21T07:55:04;6.90;;;3.30;;
46266;SDS011;31998;48.798;15.066;2024-02-21T07:57:30;7.43;;;2.53;;
46266;SDS011;31998;48.798;15.066;2024-02-21T07:59:55;7.77;;;2.63;;
46266;SDS011;31998;48.798;15.066;2024-02-21T08:02:20;11.73;;;6.47;;
46266;SDS011;31998;48.798;15.066;2024-02-21T08:04:46;12.50;;;3.40;;
46266;SDS011;31998;48.798;15.066;2024-02-21T08:07:11;8.37;;;2.90;;
46266;SDS011;31998;48.798;15.066;2024-02-21T08:09:36;4.50;;;2.23;;
46266;SDS011;31998;48.798;15.066;2024-02-21T08:12:03;6.63;;;2.57;;
46266;SDS011;31998;48.798;15.066;2024-02-21T08:14:28;8.33;;;2.90;;
46266;SDS011;31998;48.798;15.066;2024-02-21T08:16:53;6.07;;;3.17;;
46266;SDS011;31998;48.798;15.066;2024-02-21T08:19:20;8.80;;;2.70;;
46266;SDS011;31998;48.798;15.066;2024-02-21T08:21:45;11.60;;;3.77;;
46266;SDS011;31998;48.798;15.066;2024-02-21T08:24:14;10.00;;;3.20;;
46266;SDS011;31998;48.798;15.066;2024-02-21T08:26:40;6.37;;;2.60;;
46266;SDS011;31998;48.798;15.066;2024-02-21T08:29:05;11.83;;;3.27;;
46266;SDS011;31998;48.798;15.066;2024-02-21T08:31:30;7.13;;;3.00;;
46266;SDS011;31998;48.798;15.066;2024-02-21T08:33:59;12.87;;;3.37;;
46266;SDS011;31998;48.798;15.066;2024-02-21T08:36:29;5.43;;;2.73;;
46266;SDS011;31998;48.798;15.066;2024-02-21T08:38:55;4.70;;;2.80;;
46266;SDS011;31998;48.798;15.066;2024-02-21T08:41:20;9.40;;;2.83;;
46266;SDS011;31998;48.798;15.066;2024-02-21T08:43:48;8.53;;;3.00;;
46266;SDS011;31998;48.798;15.066;2024-02-21T08:46:13;6.87;;;3.10;;
46266;SDS011;31998;48.798;15.066;2024-02-21T08:48:38;10.37;;;3.60;;
46266;SDS011;31998;48.798;15.066;2024-02-21T08:51:03;2.40;;;2.20;;
46266;SDS011;31998;48.798;15.066;2024-02-21T08:53:29;8.20;;;3.17;;
46266;SDS011;31998;48.798;15.066;2024-02-21T08:55:54;16.97;;;3.60;;
46266;SDS011;31998;48.798;15.066;2024-02-21T08:58:19;4.27;;;2.80;;
46266;SDS011;31998;48.798;15.066;2024-02-21T09:00:44;8.60;;;2.97;;
46266;SDS011;31998;48.798;15.066;2024-02-21T09:03:10;3.80;;;2.00;;
46266;SDS011;31998;48.798;15.066;2024-02-21T09:05:35;5.80;;;2.67;;
46266;SDS011;31998;48.798;15.066;2024-02-21T09:08:00;5.97;;;2.50;;
46266;SDS011;31998;48.798;15.066;2024-02-21T09:10:25;6.70;;;2.90;;
46266;SDS011;31998;48.798;15.066;2024-02-21T09:12:51;4.93;;;2.23;;
46266;SDS011;31998;48.798;15.066;2024-02-21T09:15:16;1.63;;;1.50;;
46266;SDS011;31998;48.798;15.066;2024-02-21T09:17:41;9.90;;;2.07;;
46266;SDS011;31998;48.798;15.066;2024-02-21T09:20:07;3.87;;;2.13;;
46266;SDS011;31998;48.798;15.066;2024-02-21T09:22:32;5.63;;;1.60;;
46266;SDS011;31998;48.798;15.066;2024-02-21T09:24:59;5.90;;;1.63;;
46266;SDS011;31998;48.798;15.066;2024-02-21T09:27:25;3.63;;;1.83;;
46266;SDS011;31998;48.798;15.066;2024-02-21T09:29:50;3.27;;;1.47;;
46266;SDS011;31998;48.798;15.066;2024-02-21T09:32:15;7.23;;;2.23;;
46266;SDS011;31998;48.798;15.066;2024-02-21T09:34:41;10.10;;;2.07;;
46266;SDS011;31998;48.798;15.066;2024-02-21T09:37:06;2.37;;;1.63;;
46266;SDS011;31998;48.798;15.066;2024-02-21T09:39:31;3.47;;;1.87;;
46266;SDS011;31998;48.798;15.066;2024-02-21T09:41:58;4.70;;;2.00;;
46266;SDS011;31998;48.798;15.066;2024-02-21T09:44:24;6.00;;;2.07;;
46266;SDS011;31998;48.798;15.066;2024-02-21T09:46:57;3.17;;;2.23;;
46266;SDS011;31998;48.798;15.066;2024-02-21T09:49:31;4.13;;;1.90;;
46266;SDS011;31998;48.798;15.066;2024-02-21T09:52:03;4.63;;;1.70;;
46266;SDS011;31998;48.798;15.066;2024-02-21T09:54:29;2.80;;;1.60;;
46266;SDS011;31998;48.798;15.066;2024-02-21T09:56:57;1.60;;;1.50;;
46266;SDS011;31998;48.798;15.066;2024-02-21T09:59:22;3.10;;;1.67;;
46266;SDS011;31998;48.798;15.066;2024-02-21T10:01:49;4.03;;;1.53;;
46266;SDS011;31998;48.798;15.066;2024-02-21T10:04:15;14.63;;;4.97;;
46266;SDS011;31998;48.798;15.066;2024-02-21T10:06:40;18.47;;;6.33;;
46266;SDS011;31998;48.798;15.066;2024-02-21T10:09:06;11.63;;;5.27;;
46266;SDS011;31998;48.798;15.066;2024-02-21T10:11:31;9.30;;;2.27;;
46266;SDS011;31998;48.798;15.066;2024-02-21T10:14:03;3.67;;;1.33;;
46266;SDS011;31998;48.798;15.066;2024-02-21T10:16:29;3.60;;;1.57;;
46266;SDS011;31998;48.798;15.066;2024-02-21T10:18:55;4.87;;;1.67;;
46266;SDS011;31998;48.798;15.066;2024-02-21T10:21:20;2.60;;;1.17;;
46266;SDS011;31998;48.798;15.066;2024-02-21T10:23:46;4.70;;;1.40;;
46266;SDS011;31998;48.798;15.066;2024-02-21T10:26:12;11.00;;;1.57;;
46266;SDS011;31998;48.798;15.066;2024-02-21T10:28:38;5.27;;;1.50;;
46266;SDS011;31998;48.798;15.066;2024-02-21T10:31:07;5.73;;;1.77;;
46266;SDS011;31998;48.798;15.066;2024-02-21T10:33:32;7.40;;;1.67;;
46266;SDS011;31998;48.798;15.066;2024-02-21T10:36:05;3.93;;;1.80;;
46266;SDS011;31998;48.798;15.066;2024-02-21T10:38:31;8.80;;;2.20;;
46266;SDS011;31998;48.798;15.066;2024-02-21T10:40:56;2.80;;;2.40;;
46266;SDS011;31998;48.798;15.066;2024-02-21T10:43:23;5.90;;;1.60;;
46266;SDS011;31998;48.798;15.066;2024-02-21T10:45:49;3.47;;;1.63;;
46266;SDS011;31998;48.798;15.066;2024-02-21T10:48:16;7.93;;;1.37;;
46266;SDS011;31998;48.798;15.066;2024-02-21T10:51:03;4.10;;;1.70;;
46266;SDS011;31998;48.798;15.066;2024-02-21T10:53:40;4.20;;;1.60;;
46266;SDS011;31998;48.798;15.066;2024-02-21T10:56:11;4.13;;;1.30;;
46266;SDS011;31998;48.798;15.066;2024-02-21T10:58:41;3.97;;;1.10;;
46266;SDS011;31998;48.798;15.066;2024-02-21T11:01:07;9.27;;;1.47;;
46266;SDS011;31998;48.798;15.066;2024-02-21T11:03:32;2.97;;;1.77;;
46266;SDS011;31998;48.798;15.066;2024-02-21T11:05:58;3.37;;;1.83;;
46266;SDS011;31998;48.798;15.066;2024-02-21T11:08:23;6.33;;;1.60;;
46266;SDS011;31998;48.798;15.066;2024-02-21T11:10:50;3.53;;;1.77;;
46266;SDS011;31998;48.798;15.066;2024-02-21T11:13:15;2.67;;;1.30;;
46266;SDS011;31998;48.798;15.066;2024-02-21T11:15:40;2.60;;;1.57;;
46266;SDS011;31998;48.798;15.066;2024-02-21T11:18:05;2.23;;;0.97;;
46266;SDS011;31998;48.798;15.066;2024-02-21T11:20:34;9.17;;;1.73;;
46266;SDS011;31998;48.798;15.066;2024-02-21T11:23:00;3.17;;;1.53;;
46266;SDS011;31998;48.798;15.066;2024-02-21T11:25:29;3.53;;;1.47;;
46266;SDS011;31998;48.798;15.066;2024-02-21T11:28:01;4.20;;;1.47;;
46266;SDS011;31998;48.798;15.066;2024-02-21T11:30:29;9.17;;;3.73;;
46266;SDS011;31998;48.798;15.066;2024-02-21T11:33:01;7.27;;;1.63;;
46266;SDS011;31998;48.798;15.066;2024-02-21T11:35:30;6.03;;;2.10;;
46266;SDS011;31998;48.798;15.066;2024-02-21T11:37:55;2.50;;;1.10;;
46266;SDS011;31998;48.798;15.066;2024-02-21T11:40:21;8.20;;;4.17;;
46266;SDS011;31998;48.798;15.066;2024-02-21T11:42:47;2.70;;;2.10;;
46266;SDS011;31998;48.798;15.066;2024-02-21T11:45:14;5.33;;;1.90;;
46266;SDS011;31998;48.798;15.066;2024-02-21T11:47:42;3.00;;;1.30;;
46266;SDS011;31998;48.798;15.066;2024-02-21T11:50:09;3.33;;;1.20;;
46266;SDS011;31998;48.798;15.066;2024-02-21T11:52:35;23.77;;;5.27;;
46266;SDS011;31998;48.798;15.066;2024-02-21T11:55:00;2.80;;;2.00;;
46266;SDS011;31998;48.798;15.066;2024-02-21T11:57:29;3.03;;;1.70;;
46266;SDS011;31998;48.798;15.066;2024-02-21T11:59:54;3.70;;;2.20;;
46266;SDS011;31998;48.798;15.066;2024-02-21T12:02:20;5.13;;;1.73;;
46266;SDS011;31998;48.798;15.066;2024-02-21T12:04:45;14.33;;;1.67;;
46266;SDS011;31998;48.798;15.066;2024-02-21T12:07:10;4.07;;;1.73;;
46266;SDS011;31998;48.798;15.066;2024-02-21T12:09:35;4.10;;;1.23;;
46266;SDS011;31998;48.798;15.066;2024-02-21T12:12:04;3.70;;;1.10;;
46266;SDS011;31998;48.798;15.066;2024-02-21T12:14:30;3.90;;;2.27;;
46266;SDS011;31998;48.798;15.066;2024-02-21T12:16:56;5.17;;;2.13;;
46266;SDS011;31998;48.798;15.066;2024-02-21T12:19:21;1.17;;;1.07;;
46266;SDS011;31998;48.798;15.066;2024-02-21T12:21:47;2.70;;;1.40;;
46266;SDS011;31998;48.798;15.066;2024-02-21T12:24:17;3.47;;;1.23;;
46266;SDS011;31998;48.798;15.066;2024-02-21T12:26:46;3.63;;;1.33;;
46266;SDS011;31998;48.798;15.066;2024-02-21T12:29:11;4.50;;;1.60;;
46266;SDS011;31998;48.798;15.066;2024-02-21T12:31:37;3.23;;;1.47;;
46266;SDS011;31998;48.798;15.066;2024-02-21T12:34:02;2.10;;;0.80;;
46266;SDS011;31998;48.798;15.066;2024-02-21T12:36:28;5.03;;;1.27;;
46266;SDS011;31998;48.798;15.066;2024-02-21T12:38:53;2.10;;;1.53;;
46266;SDS011;31998;48.798;15.066;2024-02-21T12:41:18;6.17;;;1.77;;
46266;SDS011;31998;48.798;15.066;2024-02-21T12:43:43;3.83;;;1.10;;
46266;SDS011;31998;48.798;15.066;2024-02-21T12:46:08;2.37;;;1.10;;
46266;SDS011;31998;48.798;15.066;2024-02-21T12:48:34;2.77;;;1.47;;
46266;SDS011;31998;48.798;15.066;2024-02-21T12:50:59;4.40;;;1.10;;
46266;SDS011;31998;48.798;15.066;2024-02-21T12:53:24;17.57;;;6.60;;
46266;SDS011;31998;48.798;15.066;2024-02-21T12:55:50;6.47;;;1.50;;
46266;SDS011;31998;48.798;15.066;2024-02-21T12:58:16;2.20;;;1.50;;
46266;SDS011;31998;48.798;15.066;2024-02-21T13:00:41;3.33;;;1.43;;
46266;SDS011;31998;48.798;15.066;2024-02-21T13:03:07;5.23;;;1.50;;
46266;SDS011;31998;48.798;15.066;2024-02-21T13:05:32;6.70;;;1.43;;
46266;SDS011;31998;48.798;15.066;2024-02-21T13:07:58;5.07;;;1.10;;
46266;SDS011;31998;48.798;15.066;2024-02-21T13:10:23;2.30;;;1.23;;
46266;SDS011;31998;48.798;15.066;2024-02-21T13:12:48;2.97;;;1.30;;
46266;SDS011;31998;48.798;15.066;2024-02-21T13:15:13;4.10;;;1.23;;
46266;SDS011;31998;48.798;15.066;2024-02-21T13:17:41;3.93;;;1.13;;
46266;SDS011;31998;48.798;15.066;2024-02-21T13:20:06;2.43;;;1.10;;
46266;SDS011;31998;48.798;15.066;2024-02-21T13:22:33;6.00;;;2.40;;
46266;SDS011;31998;48.798;15.066;2024-02-21T13:24:58;4.17;;;1.50;;
46266;SDS011;31998;48.798;15.066;2024-02-21T13:27:24;2.00;;;1.30;;
46266;SDS011;31998;48.798;15.066;2024-02-21T13:29:49;1.87;;;1.30;;
46266;SDS011;31998;48.798;15.066;2024-02-21T13:32:14;5.10;;;1.57;;
46266;SDS011;31998;48.798;15.066;2024-02-21T13:34:40;3.47;;;1.17;;
46266;SDS011;31998;48.798;15.066;2024-02-21T13:37:07;2.63;;;1.33;;
46266;SDS011;31998;48.798;15.066;2024-02-21T13:39:34;3.43;;;2.20;;
46266;SDS011;31998;48.798;15.066;2024-02-21T13:42:00;4.03;;;1.83;;
46266;SDS011;31998;48.798;15.066;2024-02-21T13:44:25;5.00;;;1.23;;
46266;SDS011;31998;48.798;15.066;2024-02-21T13:46:50;4.50;;;2.47;;
46266;SDS011;31998;48.798;15.066;2024-02-21T13:49:15;3.60;;;2.83;;
46266;SDS011;31998;48.798;15.066;2024-02-21T13:51:41;2.33;;;1.50;;
46266;SDS011;31998;48.798;15.066;2024-02-21T13:54:07;3.93;;;3.40;;
46266;SDS011;31998;48.798;15.066;2024-02-21T13:56:34;4.20;;;3.50;;
46266;SDS011;31998;48.798;15.066;2024-02-21T13:59:00;2.03;;;1.40;;
46266;SDS011;31998;48.798;15.066;2024-02-21T14:01:25;7.30;;;3.03;;
46266;SDS011;31998;48.798;15.066;2024-02-21T14:03:51;4.03;;;1.57;;
46266;SDS011;31998;48.798;15.066;2024-02-21T14:06:16;8.60;;;2.30;;
46266;SDS011;31998;48.798;15.066;2024-02-21T14:08:42;11.40;;;5.30;;
46266;SDS011;31998;48.798;15.066;2024-02-21T14:11:07;1.60;;;1.00;;
46266;SDS011;31998;48.798;15.066;2024-02-21T14:13:33;2.50;;;1.10;;
46266;SDS011;31998;48.798;15.066;2024-02-21T14:15:58;2.03;;;1.73;;
46266;SDS011;31998;48.798;15.066;2024-02-21T14:18:23;3.10;;;1.77;;
46266;SDS011;31998;48.798;15.066;2024-02-21T14:20:48;2.10;;;1.20;;
46266;SDS011;31998;48.798;15.066;2024-02-21T14:23:13;7.87;;;1.17;;
46266;SDS011;31998;48.798;15.066;2024-02-21T14:25:39;5.53;;;1.20;;